createdAt,value
2023-05-07T00:12:58.918Z,78.4
2023-05-07T00:17:35.405Z,78.4
2023-05-07T00:22:41.877Z,78.4
2023-05-07T00:27:58.289Z,78.3
2023-05-07T00:33:08.399Z,79.2
2023-05-07T00:38:04.741Z,78.8
2023-05-07T00:43:10.978Z,78.9
2023-05-07T00:48:27.364Z,78.9
2023-05-07T00:53:33.843Z,78.7
2023-05-07T00:58:30.101Z,78.8
2023-05-07T01:03:46.529Z,78.5
2023-05-07T01:09:27.080Z,78.6
2023-05-07T01:14:19.330Z,79.5
2023-05-07T01:19:09.260Z,79.1
2023-05-07T01:24:05.618Z,79.3
2023-05-07T01:29:25.730Z,79.0
2023-05-07T01:34:31.992Z,79.0
2023-05-07T01:39:38.359Z,79.5
2023-05-07T01:44:48.788Z,79.3
2023-05-07T01:49:51.201Z,80.3
2023-05-07T01:54:57.607Z,79.8
2023-05-07T02:00:04.092Z,80.6
2023-05-07T02:10:16.747Z,80.1
2023-05-07T02:20:28.533Z,80.0
2023-05-07T02:25:35.919Z,79.8
2023-05-07T02:31:16.520Z,80.2
2023-05-07T02:36:23.822Z,80.4
2023-05-07T02:41:33.764Z,80.0
2023-05-07T02:46:40.317Z,80.3
2023-05-07T02:51:46.725Z,80.3
2023-05-07T02:56:53.098Z,80.6
2023-05-07T03:07:05.876Z,80.7
2023-05-07T03:12:46.551Z,80.4
2023-05-07T03:17:54.041Z,81.3
2023-05-07T03:23:01.873Z,80.6
2023-05-07T03:28:08.265Z,80.7
2023-05-07T03:33:38.852Z,80.3
2023-05-07T03:38:21.067Z,80.1
2023-05-07T03:43:40.467Z,81.5
2023-05-07T03:49:02.014Z,80.4
2023-05-07T03:54:04.413Z,80.7
2023-05-07T03:58:46.854Z,80.1
2023-05-07T04:03:53.341Z,80.3
2023-05-07T04:13:55.931Z,80.4
2023-05-07T04:19:13.172Z,80.4
2023-05-07T04:24:19.544Z,80.5
2023-05-07T04:29:26.036Z,80.7
2023-05-07T04:34:36.324Z,80.3
2023-05-07T04:39:38.696Z,80.7
2023-05-07T04:44:45.167Z,81.1
2023-05-07T04:50:29.510Z,81.8
2023-05-07T04:54:57.808Z,81.0
2023-05-07T05:00:04.439Z,81.2
2023-05-07T05:05:10.554Z,80.9
2023-05-07T05:10:23.134Z,82.3
2023-05-07T05:15:22.391Z,82.0
2023-05-07T05:20:53.724Z,82.6
2023-05-07T05:25:36.109Z,82.8
2023-05-07T05:30:46.578Z,81.7
2023-05-07T05:35:48.880Z,82.1
2023-05-07T05:40:59.259Z,81.7
2023-05-07T05:46:02.106Z,81.7
2023-05-07T05:51:08.161Z,81.7
2023-05-07T06:01:21.011Z,80.7
2023-05-07T06:06:27.291Z,80.4
2023-05-07T06:11:33.672Z,81.4
2023-05-07T06:17:04.317Z,81.4
2023-05-07T06:21:50.415Z,81.2
2023-05-07T06:26:52.851Z,81.4
2023-05-07T06:31:59.265Z,81.8
2023-05-07T06:37:05.748Z,81.7
2023-05-07T06:42:12.024Z,82.6
2023-05-07T06:47:18.384Z,82.4
2023-05-07T06:52:24.776Z,83.2
2023-05-07T06:57:31.112Z,82.6
2023-05-07T07:02:39.101Z,82.9
2023-05-07T07:07:45.434Z,82.8
2023-05-07T07:12:51.849Z,82.8
2023-05-07T07:17:58.271Z,82.9
2023-05-07T07:23:25.723Z,82.7
2023-05-07T07:33:19.103Z,82.5
2023-05-07T07:38:30.706Z,82.7
2023-05-07T07:43:36.987Z,83.3
2023-05-07T07:48:39.365Z,83.3
2023-05-07T07:53:49.826Z,83.3
2023-05-07T08:04:00.167Z,83.3
2023-05-07T08:09:20.437Z,83.3
2023-05-07T08:14:12.798Z,83.2
2023-05-07T08:19:26.771Z,83.9
2023-05-07T08:24:29.226Z,83.0
2023-05-07T08:29:25.473Z,82.5
2023-05-07T08:34:31.853Z,82.7
2023-05-07T08:39:48.925Z,82.5
2023-05-07T08:50:05.618Z,82.6
2023-05-07T08:54:59.012Z,82.4
2023-05-07T09:00:05.381Z,82.6
2023-05-07T09:06:05.890Z,82.6
2023-05-07T09:10:28.201Z,81.7
2023-05-07T09:25:51.500Z,80.0
2023-05-07T09:30:53.736Z,80.0
2023-05-07T09:36:00.156Z,79.8
2023-05-07T09:41:10.588Z,79.2
2023-05-07T09:46:13.054Z,78.4
2023-05-07T09:51:19.264Z,78.2
2023-05-07T09:56:25.631Z,78.0
2023-05-07T10:01:36.053Z,77.4
2023-05-07T10:06:42.363Z,76.8
2023-05-07T10:11:44.875Z,75.9
2023-05-07T10:16:51.106Z,75.2
2023-05-07T10:21:57.491Z,74.4
2023-05-07T10:27:04.038Z,73.6
2023-05-07T10:32:13.789Z,73.4
2023-05-07T10:37:20.196Z,73.0
2023-05-07T10:42:26.644Z,73.3
2023-05-07T10:47:32.949Z,72.9
2023-05-07T10:52:40.897Z,72.6
2023-05-07T10:57:47.389Z,71.8
2023-05-07T11:02:53.866Z,70.5
2023-05-07T11:08:00.223Z,70.9
2023-05-07T11:13:08.367Z,69.7
2023-05-07T11:18:14.570Z,69.9
2023-05-07T11:23:20.942Z,69.1
2023-05-07T11:28:27.973Z,68.7
2023-05-07T11:33:33.253Z,69.0
2023-05-07T11:38:40.666Z,68.3
2023-05-07T11:43:47.096Z,67.4
2023-05-07T11:48:53.557Z,67.2
2023-05-07T11:53:59.962Z,68.2
2023-05-07T11:59:06.382Z,68.6
2023-05-07T12:04:12.798Z,69.2
2023-05-07T12:09:19.094Z,68.7
2023-05-07T12:14:25.486Z,69.8
2023-05-07T12:19:31.943Z,69.6
2023-05-07T12:24:38.325Z,69.7
2023-05-07T12:29:44.754Z,69.8
2023-05-07T12:34:51.081Z,69.6
2023-05-07T12:39:58.012Z,69.7
2023-05-07T12:45:04.465Z,70.1
2023-05-07T12:50:10.887Z,70.2
2023-05-07T12:55:17.305Z,70.1
2023-05-07T13:00:23.693Z,70.3
2023-05-07T13:05:30.021Z,70.2
2023-05-07T13:10:36.417Z,70.1
2023-05-07T13:15:42.789Z,70.5
2023-05-07T13:20:50.693Z,70.1
2023-05-07T13:25:57.150Z,70.4
2023-05-07T13:31:05.050Z,70.6
2023-05-07T13:36:10.416Z,70.4
2023-05-07T13:41:19.353Z,70.7
2023-05-07T13:46:25.837Z,71.2
2023-05-07T13:51:35.698Z,70.7
2023-05-07T13:56:42.071Z,70.4
2023-05-07T14:02:22.599Z,70.4
2023-05-07T14:06:55.001Z,70.7
2023-05-07T14:12:01.444Z,70.7
2023-05-07T14:17:07.877Z,70.9
2023-05-07T14:22:17.807Z,71.0
2023-05-07T14:27:24.163Z,70.4
2023-05-07T14:32:32.154Z,70.1
2023-05-07T14:37:38.515Z,71.1
2023-05-07T14:42:46.026Z,71.3
2023-05-07T14:47:52.515Z,71.4
2023-05-07T14:53:00.437Z,71.3
2023-05-07T14:58:06.728Z,71.3
2023-05-07T15:03:14.794Z,71.7
2023-05-07T15:08:21.242Z,72.1
2023-05-07T15:13:27.778Z,71.8
2023-05-07T15:18:34.014Z,72.0
2023-05-07T15:23:42.010Z,71.8
2023-05-07T15:28:48.474Z,72.1
2023-05-07T15:33:54.864Z,71.5
2023-05-07T15:39:05.283Z,71.9
2023-05-07T15:44:07.655Z,72.3
2023-05-07T15:49:06.082Z,72.2
2023-05-07T15:54:22.466Z,72.3
2023-05-07T15:59:30.414Z,71.8
2023-05-07T16:04:35.757Z,72.1
2023-05-07T16:09:46.725Z,72.7
2023-05-07T16:14:53.246Z,72.8
2023-05-07T16:19:59.678Z,72.5
2023-05-07T16:25:10.325Z,72.5
2023-05-07T16:30:55.507Z,72.9
2023-05-07T16:41:09.389Z,72.2
2023-05-07T16:46:15.838Z,73.2
2023-05-07T16:51:22.114Z,73.4
2023-05-07T16:56:28.533Z,73.8
2023-05-07T17:01:59.443Z,73.7
2023-05-07T17:06:41.366Z,73.6
2023-05-07T17:11:47.786Z,73.8
2023-05-07T17:16:54.152Z,74.0
2023-05-07T17:22:00.516Z,74.2
2023-05-07T17:27:07.044Z,74.1
2023-05-07T17:32:13.411Z,74.2
2023-05-07T17:37:21.073Z,74.3
2023-05-07T17:42:26.300Z,74.2
2023-05-07T17:47:52.856Z,74.5
2023-05-07T17:52:59.199Z,74.4
2023-05-07T17:57:35.555Z,74.2
2023-05-07T18:02:52.569Z,74.2
2023-05-07T18:07:59.883Z,74.4
2023-05-07T18:13:09.984Z,74.6
2023-05-07T18:18:17.341Z,74.9
2023-05-07T18:23:23.813Z,75.2
2023-05-07T18:28:30.246Z,75.0
2023-05-07T18:33:40.427Z,75.4
2023-05-07T18:38:46.811Z,75.2
2023-05-07T18:43:53.274Z,75.3
2023-05-07T18:48:59.563Z,75.5
2023-05-07T18:54:09.583Z,75.5
2023-05-07T18:59:15.993Z,75.7
2023-05-07T19:04:22.404Z,75.9
2023-05-07T19:09:32.284Z,76.0
2023-05-07T19:14:38.705Z,76.2
2023-05-07T19:19:46.614Z,76.1
2023-05-07T19:24:54.151Z,76.1
2023-05-07T19:30:02.751Z,76.3
2023-05-07T19:35:09.119Z,76.8
2023-05-07T19:40:17.052Z,76.5
2023-05-07T19:45:23.450Z,76.4
2023-05-07T19:50:29.800Z,76.7
2023-05-07T19:55:36.290Z,76.7
2023-05-07T20:00:46.264Z,76.7
2023-05-07T20:05:52.687Z,76.8
2023-05-07T20:10:59.078Z,77.3
2023-05-07T20:16:29.565Z,77.2
2023-05-07T20:21:11.842Z,77.1
2023-05-07T20:26:18.219Z,77.0
2023-05-07T20:31:48.791Z,76.7
2023-05-07T20:36:21.055Z,77.0
2023-05-07T20:41:41.051Z,76.9
2023-05-07T20:46:47.999Z,77.1
2023-05-07T20:51:54.401Z,77.3
2023-05-07T20:57:00.772Z,77.3
2023-05-07T21:02:07.284Z,77.7
2023-05-07T21:07:13.654Z,77.6
2023-05-07T21:12:21.590Z,77.4
2023-05-07T21:17:27.996Z,77.4
2023-05-07T21:22:34.341Z,77.4
2023-05-07T21:27:40.702Z,77.3
2023-05-07T21:32:47.236Z,77.4
2023-05-07T21:37:53.604Z,77.4
2023-05-07T21:43:00.046Z,77.7
2023-05-07T21:48:06.396Z,77.9
2023-05-07T21:53:14.341Z,77.9
2023-05-07T21:58:10.693Z,77.6
2023-05-07T22:03:30.790Z,78.4
2023-05-07T22:08:37.146Z,78.0
2023-05-07T22:13:43.486Z,77.8
2023-05-07T22:18:49.874Z,78.1
2023-05-07T22:23:57.894Z,78.2
2023-05-07T22:34:10.178Z,78.1
2023-05-07T22:39:17.788Z,78.3
2023-05-07T22:44:44.184Z,78.3
2023-05-07T22:49:30.506Z,78.1
2023-05-07T22:54:36.904Z,78.1
2023-05-07T23:00:03.347Z,78.1
2023-05-07T23:04:49.676Z,78.1
2023-05-07T23:09:56.119Z,78.0
2023-05-07T23:15:02.516Z,78.1
2023-05-07T23:20:10.662Z,78.1
2023-05-07T23:25:16.835Z,77.9
2023-05-07T23:30:58.937Z,78.3
2023-05-07T23:35:31.150Z,78.8
2023-05-07T23:40:39.171Z,77.9
2023-05-07T23:45:45.561Z,78.1
2023-05-07T23:50:51.982Z,77.8
2023-05-07T23:55:58.421Z,77.8
